createdAt,value
2019-06-19T00:01:12.879Z,69.14
2019-06-19T00:03:43.469Z,70.69
2019-06-19T00:06:14.035Z,70.22
2019-06-19T00:08:44.636Z,72.20
2019-06-19T00:11:15.529Z,71.16
2019-06-19T00:13:46.097Z,71.00
2019-06-19T00:16:16.673Z,72.17
2019-06-19T00:18:47.256Z,70.07
2019-06-19T00:21:17.820Z,70.61
2019-06-19T00:23:48.408Z,71.34
2019-06-19T00:26:18.983Z,72.77
2019-06-19T00:28:50.972Z,72.36
2019-06-19T00:31:22.263Z,72.36
2019-06-19T00:33:52.986Z,72.62
2019-06-19T00:36:23.534Z,69.79
2019-06-19T00:38:54.134Z,67.61
2019-06-19T00:41:24.704Z,68.23
2019-06-19T00:43:55.281Z,69.96
2019-06-19T00:46:25.856Z,70.42
2019-06-19T00:48:56.446Z,70.49
2019-06-19T00:51:27.017Z,71.21
2019-06-19T00:53:57.613Z,72.20
2019-06-19T00:56:36.715Z,71.82
2019-06-19T00:59:07.875Z,73.32
2019-06-19T01:01:38.434Z,73.19
2019-06-19T01:04:11.028Z,74.31
2019-06-19T01:06:41.311Z,74.12
2019-06-19T01:09:11.918Z,72.48
2019-06-19T01:11:42.631Z,71.78
2019-06-19T01:14:13.226Z,72.39
2019-06-19T01:16:43.846Z,72.58
2019-06-19T01:19:14.410Z,73.08
2019-06-19T01:21:44.993Z,74.72
2019-06-19T01:24:15.603Z,76.06
2019-06-19T01:26:46.183Z,75.24
2019-06-19T01:29:16.764Z,76.62
2019-06-19T01:31:47.341Z,77.65
2019-06-19T01:34:17.943Z,78.27
2019-06-19T01:36:50.898Z,76.65
2019-06-19T01:39:21.390Z,77.35
2019-06-19T01:41:51.958Z,77.42
2019-06-19T01:44:22.828Z,77.23
2019-06-19T01:46:53.406Z,77.62
2019-06-19T01:49:24.058Z,77.35
2019-06-19T01:51:54.634Z,77.97
2019-06-19T01:54:25.224Z,77.11
2019-06-19T01:56:55.902Z,77.17
2019-06-19T01:59:26.508Z,76.33
2019-06-19T02:01:57.056Z,76.71
2019-06-19T02:04:27.651Z,76.79
2019-06-19T02:07:00.815Z,76.79
2019-06-19T02:09:30.946Z,76.12
2019-06-19T02:12:01.602Z,77.16
2019-06-19T02:14:32.417Z,76.41
2019-06-19T02:17:02.993Z,77.77
2019-06-19T02:19:40.874Z,78.10
2019-06-19T02:22:06.358Z,77.41
2019-06-19T02:24:36.916Z,77.10
2019-06-19T02:27:07.534Z,78.13
2019-06-19T02:29:40.322Z,76.43
2019-06-19T02:32:11.982Z,75.53
2019-06-19T02:34:42.888Z,73.51
2019-06-19T02:37:13.544Z,72.78
2019-06-19T02:39:44.143Z,72.44
2019-06-19T02:42:14.729Z,73.70
2019-06-19T02:44:48.560Z,74.71
2019-06-19T02:47:17.704Z,74.80
2019-06-19T02:49:48.285Z,74.46
2019-06-19T02:52:18.996Z,76.49
2019-06-19T02:54:49.555Z,75.48
2019-06-19T02:57:20.337Z,76.63
2019-06-19T02:59:51.188Z,76.68
2019-06-19T03:02:21.828Z,77.46
2019-06-19T03:04:52.423Z,77.73
2019-06-19T03:07:23.017Z,78.48
2019-06-19T03:09:53.646Z,79.26
2019-06-19T03:12:24.629Z,78.16
2019-06-19T03:14:55.465Z,78.19
2019-06-19T03:17:26.084Z,78.02
2019-06-19T03:19:56.904Z,77.45
2019-06-19T03:22:27.496Z,77.67
2019-06-19T03:24:58.053Z,77.38
2019-06-19T03:27:28.648Z,76.23
2019-06-19T03:29:59.223Z,76.16
2019-06-19T03:32:29.809Z,75.73
2019-06-19T03:35:00.358Z,76.70
2019-06-19T03:37:30.947Z,76.91
2019-06-19T03:40:01.634Z,75.19
2019-06-19T03:42:32.225Z,72.73
2019-06-19T03:45:03.131Z,72.38
2019-06-19T03:47:33.743Z,72.94
2019-06-19T03:50:04.944Z,72.75
2019-06-19T03:52:35.554Z,73.81
2019-06-19T03:55:06.439Z,75.20
2019-06-19T03:57:37.026Z,74.09
2019-06-19T04:00:08.302Z,74.15
2019-06-19T04:02:39.023Z,73.91
2019-06-19T04:05:09.591Z,75.96
2019-06-19T04:07:40.465Z,74.95
2019-06-19T04:10:11.070Z,74.70
2019-06-19T04:12:41.646Z,73.88
2019-06-19T04:15:12.739Z,73.25
2019-06-19T04:17:43.331Z,73.73
2019-06-19T04:20:46.703Z,73.22
2019-06-19T04:23:17.272Z,75.68
2019-06-19T04:25:47.834Z,76.21
2019-06-19T04:28:37.261Z,77.02
2019-06-19T04:31:08.120Z,77.10
2019-06-19T04:33:38.923Z,76.14
2019-06-19T04:36:11.349Z,77.00
2019-06-19T04:38:42.325Z,74.70
2019-06-19T04:41:13.784Z,74.77
2019-06-19T04:43:44.390Z,77.07
2019-06-19T04:46:14.951Z,75.66
2019-06-19T04:48:45.494Z,73.89
2019-06-19T04:51:16.058Z,72.87
2019-06-19T04:53:46.632Z,74.11
2019-06-19T04:56:17.242Z,73.12
2019-06-19T04:58:47.801Z,74.75
2019-06-19T05:01:18.437Z,73.63
2019-06-19T05:03:49.621Z,73.12
2019-06-19T05:06:20.211Z,74.69
2019-06-19T05:08:51.084Z,75.35
2019-06-19T05:11:21.661Z,74.21
2019-06-19T05:13:52.241Z,73.81
2019-06-19T05:16:22.845Z,73.34
2019-06-19T05:18:53.421Z,74.01
2019-06-19T05:21:23.970Z,72.85
2019-06-19T05:23:54.614Z,73.72
2019-06-19T05:26:25.193Z,73.17
2019-06-19T05:28:56.018Z,72.94
2019-06-19T05:31:26.606Z,73.96
2019-06-19T05:33:57.212Z,74.43
2019-06-19T05:36:27.786Z,74.08
2019-06-19T05:38:58.354Z,73.29
2019-06-19T05:41:28.939Z,74.06
2019-06-19T05:43:59.507Z,73.68
2019-06-19T05:46:30.446Z,72.49
2019-06-19T05:49:00.995Z,73.86
2019-06-19T05:51:31.586Z,72.29
2019-06-19T05:54:05.638Z,73.01
2019-06-19T05:56:34.487Z,72.77
2019-06-19T05:59:05.046Z,72.02
2019-06-19T06:01:35.603Z,71.58
2019-06-19T06:04:06.144Z,71.28
2019-06-19T06:06:36.708Z,72.12
2019-06-19T06:09:08.952Z,71.54
2019-06-19T06:11:39.520Z,71.10
2019-06-19T06:14:10.085Z,72.29
2019-06-19T06:16:40.661Z,71.63
2019-06-19T06:19:11.488Z,70.99
2019-06-19T06:21:47.171Z,70.81
2019-06-19T06:24:17.729Z,71.09
2019-06-19T06:26:48.298Z,70.80
2019-06-19T06:29:18.851Z,71.49
2019-06-19T06:31:49.414Z,71.49
2019-06-19T06:34:19.981Z,71.44
2019-06-19T06:36:50.525Z,71.06
2019-06-19T06:39:21.363Z,70.73
2019-06-19T06:41:51.948Z,69.68
2019-06-19T06:44:22.519Z,69.69
2019-06-19T06:46:53.342Z,70.81
2019-06-19T06:49:23.917Z,68.11
2019-06-19T06:51:54.492Z,67.66
2019-06-19T06:54:25.075Z,70.15
2019-06-19T06:56:59.393Z,69.31
2019-06-19T06:59:27.967Z,69.30
2019-06-19T07:01:58.512Z,68.89
2019-06-19T07:04:29.088Z,69.46
2019-06-19T07:06:59.662Z,67.98
2019-06-19T07:09:33.174Z,67.97
2019-06-19T07:12:02.559Z,67.06
2019-06-19T07:14:33.151Z,66.02
2019-06-19T07:17:04.007Z,66.96
2019-06-19T07:19:35.171Z,68.53
2019-06-19T07:22:06.031Z,67.98
2019-06-19T07:24:36.630Z,67.40
2019-06-19T07:27:07.127Z,67.13
2019-06-19T07:29:37.697Z,66.62
2019-06-19T07:32:08.251Z,66.89
2019-06-19T07:34:38.807Z,67.92
2019-06-19T07:37:09.558Z,65.88
2019-06-19T07:39:40.170Z,63.43
2019-06-19T07:42:10.713Z,60.44
2019-06-19T07:44:41.284Z,61.57
2019-06-19T07:47:11.847Z,63.37
2019-06-19T07:49:42.501Z,60.61
2019-06-19T07:52:13.062Z,61.17
2019-06-19T07:54:43.919Z,60.34
2019-06-19T07:57:14.484Z,59.82
2019-06-19T07:59:45.108Z,60.07
2019-06-19T08:02:15.700Z,60.58
2019-06-19T08:04:46.286Z,60.09
2019-06-19T08:07:16.836Z,59.59
2019-06-19T08:09:47.406Z,56.60
2019-06-19T08:12:17.973Z,56.33
2019-06-19T08:14:48.554Z,56.51
2019-06-19T08:17:19.129Z,57.39
2019-06-19T08:19:49.688Z,56.83
2019-06-19T08:22:20.226Z,56.77
2019-06-19T08:24:50.808Z,57.54
2019-06-19T08:27:21.545Z,56.97
2019-06-19T08:29:52.133Z,57.35
2019-06-19T08:32:22.850Z,54.70
2019-06-19T08:34:53.437Z,54.14
2019-06-19T08:37:24.242Z,51.68
2019-06-19T08:39:55.090Z,52.83
2019-06-19T08:42:26.191Z,53.94
2019-06-19T08:44:57.050Z,52.15
2019-06-19T08:47:27.678Z,52.38
2019-06-19T08:49:58.542Z,51.05
2019-06-19T08:52:29.134Z,50.73
2019-06-19T08:54:59.818Z,50.64
2019-06-19T08:57:30.680Z,49.63
2019-06-19T09:00:01.271Z,49.35
2019-06-19T09:02:31.832Z,50.32
2019-06-19T09:05:02.415Z,50.85
2019-06-19T09:07:33.053Z,50.34
2019-06-19T09:10:12.667Z,49.96
2019-06-19T09:12:43.195Z,48.96
2019-06-19T09:15:13.786Z,47.99
2019-06-19T09:17:44.348Z,48.61
2019-06-19T09:20:15.125Z,49.19
2019-06-19T09:22:45.711Z,48.98
2019-06-19T09:25:16.344Z,48.13
2019-06-19T09:27:46.905Z,47.34
2019-06-19T09:30:22.623Z,47.41
2019-06-19T09:32:53.242Z,45.19
2019-06-19T09:35:24.010Z,45.58
2019-06-19T09:37:54.672Z,44.23
2019-06-19T09:40:25.243Z,45.47
2019-06-19T09:42:55.819Z,45.07
2019-06-19T09:45:26.611Z,44.69
2019-06-19T09:47:57.195Z,44.94
2019-06-19T09:50:27.769Z,44.55
2019-06-19T09:52:58.375Z,44.54
2019-06-19T09:55:28.942Z,45.18
2019-06-19T09:57:59.545Z,43.61
2019-06-19T10:00:30.129Z,43.68
2019-06-19T10:03:00.764Z,44.43
2019-06-19T10:05:31.366Z,45.66
2019-06-19T10:08:01.947Z,45.36
2019-06-19T10:10:32.944Z,44.98
2019-06-19T10:13:03.507Z,45.11
2019-06-19T10:15:34.301Z,45.30
2019-06-19T10:18:04.918Z,45.68
